Auburn, New York
Current Conditions -  °F | °C
As of 12:54 PM on Monday 26 Jan 2015 (Local Time) from KSYR Reporting Station
Light Snow Light Snow  
Wind Chill:   Ceiling: 2700
Heat Index: 16°   Visibility: 2mi
Dew Point: 10°   Wind: 9mph
Humidity: 77%   Direction: 70°ENE
Pressure: 29.96"   Gusts: NA
Location:  42.93°N, 76.56°W
Report Text: KSYR 261754Z 07008KT 2SM -SN BKN027 OVC036 M09/M12 A2996 RMK AO2 SLP152 4/002 P0000 60000 T10891122 11089 21156 58018 $
Loading
Personal Weather Stations






























Interactive Weather Map New forecast layout! Learn more

10-Day Weather Forecast

Advertisements
Track Severe Weather on mobile